Meteopozuelo

Informes METAR próximos a MeteoPozuelo

 

LEVS - Cuatro Vientos (Madrid) España
Actualización: 26/05/2020 13:30
Parcialmente nuboso
Parcialmente nuboso
 Viento del ESE
Viento: ESE 9 km/h
Temperatura: 23°C
Punto de Rocío: 12°C
Humedad: 50%
Barómetro: 1027 hPa
Clouds: Parcialmente nuboso
Visibility: 10 km
Cloud details: Few Clouds 610 m
Parcialmente nuboso 1067 m
2020/05/26 11:30 LEVS 261130Z 11005KT 070V170 9999 FEW020 SCT035TCU 23/12 Q1027
LEGT - Getafe (Madrid ) España
Actualización: 26/05/2020 13:00
Parcialmente nuboso
Parcialmente nuboso
 Viento del SSE
Viento: SSE 11 km/h
Temperatura: 22°C
Punto de Rocío: 14°C
Humedad: 61%
Barómetro: 1027 hPa
Clouds: Parcialmente nuboso
Visibility: 10 km
Cloud details: Few Clouds 1067 m
Parcialmente nuboso 1372 m
2020/05/26 11:00 LEGT 261100Z 15006KT 110V200 9999 FEW035 SCT045TCU 22/14 Q1027
 
LEMD - Barajas (Madrid) España
Actualización: 26/05/2020 13:30
Nearby thunderstorm, Muy nuboso
Nearby thunderstorm, Muy nuboso
 Viento del varies
Viento: varies 6 km/h
Temperatura: 24°C
Punto de Rocío: 13°C
Humedad: 50%
Barómetro: 1026 hPa
Resumen: Nearby Thunderstorm
Clouds: Muy nuboso
Visibility: 10 km
Cloud details: Parcialmente nuboso 1097 m
Muy nuboso 1829 m
2020/05/26 11:30 LEMD 261130Z VRB03KT 9999 VCTS SCT036CB BKN060 24/13 Q1026 BECMG SHRA
LETO - Torrejon de Ardoz (Madrid) España
Actualización: 26/05/2020 13:00
Thunderstorm, Parcialmente nuboso
Thunderstorm, Parcialmente nuboso
 Viento del NNO
Viento: NNO 13 km/h
Temperatura: 19°C
Punto de Rocío: 17°C
Humedad: 88%
Barómetro: 1026 hPa
Resumen: Thunderstorm
Clouds: Parcialmente nuboso
Visibility: 10 km
Cloud details: Few Clouds 1463 m
Parcialmente nuboso 2103 m
2020/05/26 11:00 LETO 261100Z 33007KT 290V010 9999 TS FEW048CB SCT069 19/17 Q1026 BECMG SHRA TS FEW048CB
 
LECV - Colmenar Viejo (Madrid)
Actualización: 26/05/2020 12:00
NOT Current
Muy nuboso
Muy nuboso
 Viento del E
Viento: E 7 km/h, Racha: 30 km/h
Temperatura: 22°C
Punto de Rocío: 13°C
Humedad: 57%
Barómetro: 1028 hPa
Clouds: Muy nuboso
Visibility: 10 km
Cloud details: Few Clouds 457 m
Muy nuboso 1829 m
2020/05/26 10:00 LECV 261000Z 10004G16KT 9999 FEW015 BKN060 22/13 Q1028